sensor_id;sensor_type;location;lat;lon;timestamp;P1;durP1;ratioP1;P2;durP2;ratioP2
11431;SDS011;5772;50.940;6.782;2023-08-06T00:00:21;33.60;;;32.10;;
11431;SDS011;5772;50.940;6.782;2023-08-06T00:02:46;35.57;;;34.07;;
11431;SDS011;5772;50.940;6.782;2023-08-06T00:05:13;29.87;;;28.37;;
11431;SDS011;5772;50.940;6.782;2023-08-06T00:07:38;33.20;;;31.80;;
11431;SDS011;5772;50.940;6.782;2023-08-06T00:10:04;32.03;;;30.53;;
11431;SDS011;5772;50.940;6.782;2023-08-06T00:12:30;31.60;;;30.10;;
11431;SDS011;5772;50.940;6.782;2023-08-06T00:14:55;33.87;;;32.47;;
11431;SDS011;5772;50.940;6.782;2023-08-06T00:17:21;31.13;;;29.73;;
11431;SDS011;5772;50.940;6.782;2023-08-06T00:19:46;31.00;;;29.60;;
11431;SDS011;5772;50.940;6.782;2023-08-06T00:22:13;30.90;;;29.57;;
11431;SDS011;5772;50.940;6.782;2023-08-06T00:24:38;32.53;;;30.57;;
11431;SDS011;5772;50.940;6.782;2023-08-06T00:27:04;32.80;;;31.37;;
11431;SDS011;5772;50.940;6.782;2023-08-06T00:29:29;31.37;;;29.87;;
11431;SDS011;5772;50.940;6.782;2023-08-06T00:31:54;32.53;;;31.13;;
11431;SDS011;5772;50.940;6.782;2023-08-06T00:34:20;31.97;;;30.57;;
11431;SDS011;5772;50.940;6.782;2023-08-06T00:36:45;32.30;;;30.70;;
11431;SDS011;5772;50.940;6.782;2023-08-06T00:39:12;34.43;;;32.70;;
11431;SDS011;5772;50.940;6.782;2023-08-06T00:41:37;33.40;;;31.70;;
11431;SDS011;5772;50.940;6.782;2023-08-06T00:44:03;35.80;;;34.10;;
11431;SDS011;5772;50.940;6.782;2023-08-06T00:46:28;33.20;;;31.80;;
11431;SDS011;5772;50.940;6.782;2023-08-06T00:48:54;38.07;;;36.37;;
11431;SDS011;5772;50.940;6.782;2023-08-06T00:51:20;38.53;;;36.63;;
11431;SDS011;5772;50.940;6.782;2023-08-06T00:53:46;36.73;;;35.20;;
11431;SDS011;5772;50.940;6.782;2023-08-06T00:56:13;38.93;;;37.10;;
11431;SDS011;5772;50.940;6.782;2023-08-06T00:58:38;37.10;;;35.47;;
11431;SDS011;5772;50.940;6.782;2023-08-06T01:01:04;36.47;;;34.90;;
11431;SDS011;5772;50.940;6.782;2023-08-06T01:03:29;36.73;;;35.13;;
11431;SDS011;5772;50.940;6.782;2023-08-06T01:05:55;36.00;;;34.50;;
11431;SDS011;5772;50.940;6.782;2023-08-06T01:08:25;37.93;;;36.30;;
11431;SDS011;5772;50.940;6.782;2023-08-06T01:11:00;36.67;;;35.07;;
11431;SDS011;5772;50.940;6.782;2023-08-06T01:13:33;37.93;;;36.40;;
11431;SDS011;5772;50.940;6.782;2023-08-06T01:16:03;36.50;;;34.80;;
11431;SDS011;5772;50.940;6.782;2023-08-06T01:18:28;37.00;;;34.90;;
11431;SDS011;5772;50.940;6.782;2023-08-06T01:20:55;36.97;;;35.17;;
11431;SDS011;5772;50.940;6.782;2023-08-06T01:23:20;35.77;;;34.27;;
11431;SDS011;5772;50.940;6.782;2023-08-06T01:25:48;35.03;;;33.63;;
11431;SDS011;5772;50.940;6.782;2023-08-06T01:28:16;35.70;;;34.20;;
11431;SDS011;5772;50.940;6.782;2023-08-06T01:30:43;38.03;;;36.43;;
11431;SDS011;5772;50.940;6.782;2023-08-06T01:33:10;33.07;;;31.57;;
11431;SDS011;5772;50.940;6.782;2023-08-06T01:35:38;31.37;;;29.90;;
11431;SDS011;5772;50.940;6.782;2023-08-06T01:38:05;32.07;;;30.60;;
11431;SDS011;5772;50.940;6.782;2023-08-06T01:40:30;29.73;;;28.40;;
11431;SDS011;5772;50.940;6.782;2023-08-06T01:42:56;30.17;;;28.90;;
11431;SDS011;5772;50.940;6.782;2023-08-06T01:45:21;27.80;;;26.70;;
11431;SDS011;5772;50.940;6.782;2023-08-06T01:47:46;24.43;;;23.37;;
11431;SDS011;5772;50.940;6.782;2023-08-06T01:50:12;25.73;;;24.63;;
11431;SDS011;5772;50.940;6.782;2023-08-06T01:52:37;27.27;;;26.07;;
11431;SDS011;5772;50.940;6.782;2023-08-06T01:55:04;28.90;;;27.57;;
11431;SDS011;5772;50.940;6.782;2023-08-06T01:57:30;26.43;;;25.23;;
11431;SDS011;5772;50.940;6.782;2023-08-06T01:59:55;28.70;;;27.57;;
11431;SDS011;5772;50.940;6.782;2023-08-06T02:02:20;29.57;;;28.10;;
11431;SDS011;5772;50.940;6.782;2023-08-06T02:04:46;29.83;;;28.33;;
11431;SDS011;5772;50.940;6.782;2023-08-06T02:07:11;30.80;;;29.43;;
11431;SDS011;5772;50.940;6.782;2023-08-06T02:09:36;31.70;;;30.40;;
11431;SDS011;5772;50.940;6.782;2023-08-06T02:12:04;32.33;;;30.97;;
11431;SDS011;5772;50.940;6.782;2023-08-06T02:14:30;31.67;;;30.27;;
11431;SDS011;5772;50.940;6.782;2023-08-06T02:16:55;30.97;;;29.57;;
11431;SDS011;5772;50.940;6.782;2023-08-06T02:19:21;30.07;;;28.87;;
11431;SDS011;5772;50.940;6.782;2023-08-06T02:21:46;29.37;;;28.10;;
11431;SDS011;5772;50.940;6.782;2023-08-06T02:24:11;28.73;;;27.57;;
11431;SDS011;5772;50.940;6.782;2023-08-06T02:26:37;30.97;;;29.67;;
11431;SDS011;5772;50.940;6.782;2023-08-06T02:29:03;34.33;;;32.93;;
11431;SDS011;5772;50.940;6.782;2023-08-06T02:31:29;32.67;;;31.23;;
11431;SDS011;5772;50.940;6.782;2023-08-06T02:33:54;33.87;;;32.47;;
11431;SDS011;5772;50.940;6.782;2023-08-06T02:36:19;32.67;;;31.20;;
11431;SDS011;5772;50.940;6.782;2023-08-06T02:38:45;33.00;;;31.60;;
11431;SDS011;5772;50.940;6.782;2023-08-06T02:41:10;34.77;;;33.17;;
11431;SDS011;5772;50.940;6.782;2023-08-06T02:43:35;34.23;;;32.83;;
11431;SDS011;5772;50.940;6.782;2023-08-06T02:46:02;34.73;;;33.23;;
11431;SDS011;5772;50.940;6.782;2023-08-06T02:48:27;34.40;;;32.90;;
11431;SDS011;5772;50.940;6.782;2023-08-06T02:50:53;35.20;;;33.77;;
11431;SDS011;5772;50.940;6.782;2023-08-06T02:53:22;34.53;;;33.10;;
11431;SDS011;5772;50.940;6.782;2023-08-06T02:55:47;35.47;;;34.00;;
11431;SDS011;5772;50.940;6.782;2023-08-06T02:58:13;33.37;;;31.60;;
11431;SDS011;5772;50.940;6.782;2023-08-06T03:00:38;33.20;;;31.80;;
11431;SDS011;5772;50.940;6.782;2023-08-06T03:03:05;35.57;;;33.93;;
11431;SDS011;5772;50.940;6.782;2023-08-06T03:05:30;34.33;;;32.83;;
11431;SDS011;5772;50.940;6.782;2023-08-06T03:07:56;32.33;;;30.93;;
11431;SDS011;5772;50.940;6.782;2023-08-06T03:10:21;33.30;;;31.90;;
11431;SDS011;5772;50.940;6.782;2023-08-06T03:12:46;35.27;;;33.67;;
11431;SDS011;5772;50.940;6.782;2023-08-06T03:15:12;33.03;;;31.60;;
11431;SDS011;5772;50.940;6.782;2023-08-06T03:17:37;33.60;;;32.20;;
11431;SDS011;5772;50.940;6.782;2023-08-06T03:20:04;33.67;;;32.27;;
11431;SDS011;5772;50.940;6.782;2023-08-06T03:22:31;34.67;;;33.17;;
11431;SDS011;5772;50.940;6.782;2023-08-06T03:24:56;36.07;;;34.50;;
11431;SDS011;5772;50.940;6.782;2023-08-06T03:27:21;34.73;;;33.27;;
11431;SDS011;5772;50.940;6.782;2023-08-06T03:29:48;34.93;;;33.47;;
11431;SDS011;5772;50.940;6.782;2023-08-06T03:32:14;33.27;;;31.77;;
11431;SDS011;5772;50.940;6.782;2023-08-06T03:34:39;32.20;;;30.90;;
11431;SDS011;5772;50.940;6.782;2023-08-06T03:37:06;34.07;;;32.57;;
11431;SDS011;5772;50.940;6.782;2023-08-06T03:39:31;37.53;;;36.03;;
11431;SDS011;5772;50.940;6.782;2023-08-06T03:41:56;40.17;;;38.33;;
11431;SDS011;5772;50.940;6.782;2023-08-06T03:44:22;36.90;;;35.30;;
11431;SDS011;5772;50.940;6.782;2023-08-06T03:46:47;34.30;;;32.73;;
11431;SDS011;5772;50.940;6.782;2023-08-06T03:49:12;34.50;;;32.90;;
11431;SDS011;5772;50.940;6.782;2023-08-06T03:51:38;36.50;;;34.87;;
11431;SDS011;5772;50.940;6.782;2023-08-06T03:54:04;33.23;;;31.73;;
11431;SDS011;5772;50.940;6.782;2023-08-06T03:56:30;32.73;;;31.33;;
11431;SDS011;5772;50.940;6.782;2023-08-06T03:58:55;32.67;;;30.87;;
11431;SDS011;5772;50.940;6.782;2023-08-06T04:01:21;32.33;;;30.93;;
11431;SDS011;5772;50.940;6.782;2023-08-06T04:03:46;31.00;;;29.50;;
11431;SDS011;5772;50.940;6.782;2023-08-06T04:06:11;42.33;;;40.53;;
11431;SDS011;5772;50.940;6.782;2023-08-06T04:08:37;43.63;;;41.57;;
11431;SDS011;5772;50.940;6.782;2023-08-06T04:11:03;45.73;;;43.27;;
11431;SDS011;5772;50.940;6.782;2023-08-06T04:13:29;42.57;;;40.70;;
11431;SDS011;5772;50.940;6.782;2023-08-06T04:15:54;44.20;;;42.30;;
11431;SDS011;5772;50.940;6.782;2023-08-06T04:18:19;43.40;;;41.50;;
11431;SDS011;5772;50.940;6.782;2023-08-06T04:20:45;41.17;;;39.43;;
11431;SDS011;5772;50.940;6.782;2023-08-06T04:23:11;42.60;;;40.80;;
11431;SDS011;5772;50.940;6.782;2023-08-06T04:25:37;47.07;;;44.93;;
11431;SDS011;5772;50.940;6.782;2023-08-06T04:28:04;44.70;;;42.80;;
11431;SDS011;5772;50.940;6.782;2023-08-06T04:30:29;45.87;;;43.97;;
11431;SDS011;5772;50.940;6.782;2023-08-06T04:32:56;44.83;;;42.83;;
11431;SDS011;5772;50.940;6.782;2023-08-06T04:35:21;47.20;;;45.00;;
11431;SDS011;5772;50.940;6.782;2023-08-06T04:37:46;42.80;;;40.97;;
11431;SDS011;5772;50.940;6.782;2023-08-06T04:40:12;40.10;;;38.40;;
11431;SDS011;5772;50.940;6.782;2023-08-06T04:42:37;48.87;;;46.53;;
11431;SDS011;5772;50.940;6.782;2023-08-06T04:45:04;48.37;;;46.23;;
11431;SDS011;5772;50.940;6.782;2023-08-06T04:47:31;47.47;;;45.43;;
11431;SDS011;5772;50.940;6.782;2023-08-06T04:49:56;49.10;;;46.90;;
11431;SDS011;5772;50.940;6.782;2023-08-06T04:52:21;50.13;;;47.83;;
11431;SDS011;5772;50.940;6.782;2023-08-06T04:54:47;45.47;;;43.40;;
11431;SDS011;5772;50.940;6.782;2023-08-06T04:57:12;45.97;;;43.73;;
11431;SDS011;5772;50.940;6.782;2023-08-06T04:59:38;46.07;;;43.67;;
11431;SDS011;5772;50.940;6.782;2023-08-06T05:02:05;47.20;;;44.93;;
11431;SDS011;5772;50.940;6.782;2023-08-06T05:04:30;42.97;;;40.87;;
11431;SDS011;5772;50.940;6.782;2023-08-06T05:06:56;45.90;;;43.70;;
11431;SDS011;5772;50.940;6.782;2023-08-06T05:09:21;47.73;;;45.73;;
11431;SDS011;5772;50.940;6.782;2023-08-06T05:11:46;45.80;;;43.80;;
11431;SDS011;5772;50.940;6.782;2023-08-06T05:14:12;45.43;;;43.20;;
11431;SDS011;5772;50.940;6.782;2023-08-06T05:16:37;44.07;;;42.10;;
11431;SDS011;5772;50.940;6.782;2023-08-06T05:19:04;45.73;;;43.47;;
11431;SDS011;5772;50.940;6.782;2023-08-06T05:21:30;44.37;;;42.47;;
11431;SDS011;5772;50.940;6.782;2023-08-06T05:23:55;47.33;;;45.10;;
11431;SDS011;5772;50.940;6.782;2023-08-06T05:26:20;47.40;;;45.27;;
11431;SDS011;5772;50.940;6.782;2023-08-06T05:28:46;43.73;;;41.83;;
11431;SDS011;5772;50.940;6.782;2023-08-06T05:31:11;45.43;;;43.43;;
11431;SDS011;5772;50.940;6.782;2023-08-06T05:33:36;43.80;;;41.70;;
11431;SDS011;5772;50.940;6.782;2023-08-06T05:36:03;43.70;;;41.77;;
11431;SDS011;5772;50.940;6.782;2023-08-06T05:38:29;41.50;;;39.63;;
11431;SDS011;5772;50.940;6.782;2023-08-06T05:40:54;41.73;;;39.93;;
11431;SDS011;5772;50.940;6.782;2023-08-06T05:43:20;40.97;;;39.17;;
11431;SDS011;5772;50.940;6.782;2023-08-06T05:45:45;40.00;;;38.17;;
11431;SDS011;5772;50.940;6.782;2023-08-06T05:48:11;38.23;;;36.63;;
11431;SDS011;5772;50.940;6.782;2023-08-06T05:50:36;39.57;;;37.73;;
11431;SDS011;5772;50.940;6.782;2023-08-06T05:53:03;40.23;;;38.53;;
11431;SDS011;5772;50.940;6.782;2023-08-06T05:55:28;38.40;;;36.67;;
11431;SDS011;5772;50.940;6.782;2023-08-06T05:57:53;39.13;;;37.10;;
11431;SDS011;5772;50.940;6.782;2023-08-06T06:00:20;42.53;;;40.63;;
11431;SDS011;5772;50.940;6.782;2023-08-06T06:02:46;42.53;;;40.73;;
11431;SDS011;5772;50.940;6.782;2023-08-06T06:05:11;42.73;;;40.73;;
11431;SDS011;5772;50.940;6.782;2023-08-06T06:07:36;39.87;;;37.87;;
11431;SDS011;5772;50.940;6.782;2023-08-06T06:10:03;38.63;;;36.50;;
11431;SDS011;5772;50.940;6.782;2023-08-06T06:12:29;39.83;;;37.90;;
11431;SDS011;5772;50.940;6.782;2023-08-06T06:14:54;39.70;;;37.90;;
11431;SDS011;5772;50.940;6.782;2023-08-06T06:17:20;38.37;;;36.67;;
11431;SDS011;5772;50.940;6.782;2023-08-06T06:19:45;39.30;;;37.67;;
11431;SDS011;5772;50.940;6.782;2023-08-06T06:22:11;37.27;;;35.57;;
11431;SDS011;5772;50.940;6.782;2023-08-06T06:24:36;39.40;;;37.80;;
11431;SDS011;5772;50.940;6.782;2023-08-06T06:27:03;36.77;;;35.27;;
11431;SDS011;5772;50.940;6.782;2023-08-06T06:29:29;33.87;;;32.47;;
11431;SDS011;5772;50.940;6.782;2023-08-06T06:31:54;35.03;;;33.63;;
11431;SDS011;5772;50.940;6.782;2023-08-06T06:34:20;34.20;;;32.87;;
11431;SDS011;5772;50.940;6.782;2023-08-06T06:36:45;34.20;;;32.67;;
11431;SDS011;5772;50.940;6.782;2023-08-06T06:39:10;32.80;;;31.50;;
11431;SDS011;5772;50.940;6.782;2023-08-06T06:41:36;33.03;;;31.63;;
11431;SDS011;5772;50.940;6.782;2023-08-06T06:44:02;33.23;;;31.73;;
11431;SDS011;5772;50.940;6.782;2023-08-06T06:46:28;33.70;;;32.17;;
11431;SDS011;5772;50.940;6.782;2023-08-06T06:48:53;31.53;;;30.20;;
11431;SDS011;5772;50.940;6.782;2023-08-06T06:51:19;32.40;;;31.10;;
11431;SDS011;5772;50.940;6.782;2023-08-06T06:53:44;32.13;;;30.77;;
11431;SDS011;5772;50.940;6.782;2023-08-06T06:56:09;30.53;;;29.23;;
11431;SDS011;5772;50.940;6.782;2023-08-06T06:58:35;29.67;;;28.37;;
11431;SDS011;5772;50.940;6.782;2023-08-06T07:01:01;29.57;;;28.30;;
11431;SDS011;5772;50.940;6.782;2023-08-06T07:03:27;30.50;;;29.30;;
11431;SDS011;5772;50.940;6.782;2023-08-06T07:05:56;32.77;;;31.37;;
11431;SDS011;5772;50.940;6.782;2023-08-06T07:08:22;29.17;;;27.97;;
11431;SDS011;5772;50.940;6.782;2023-08-06T07:10:47;31.43;;;30.13;;
11431;SDS011;5772;50.940;6.782;2023-08-06T07:13:12;30.20;;;28.97;;
11431;SDS011;5772;50.940;6.782;2023-08-06T07:15:38;32.50;;;31.10;;
11431;SDS011;5772;50.940;6.782;2023-08-06T07:18:04;30.13;;;28.93;;
11431;SDS011;5772;50.940;6.782;2023-08-06T07:20:30;28.60;;;27.50;;
11431;SDS011;5772;50.940;6.782;2023-08-06T07:22:55;29.30;;;28.10;;
11431;SDS011;5772;50.940;6.782;2023-08-06T07:25:20;29.33;;;28.13;;
11431;SDS011;5772;50.940;6.782;2023-08-06T07:27:46;27.90;;;26.80;;
11431;SDS011;5772;50.940;6.782;2023-08-06T07:30:11;26.13;;;24.93;;
11431;SDS011;5772;50.940;6.782;2023-08-06T07:32:36;28.37;;;27.27;;
11431;SDS011;5772;50.940;6.782;2023-08-06T07:35:03;26.67;;;25.57;;
11431;SDS011;5772;50.940;6.782;2023-08-06T07:37:29;23.83;;;22.83;;
11431;SDS011;5772;50.940;6.782;2023-08-06T07:39:55;25.30;;;24.30;;
11431;SDS011;5772;50.940;6.782;2023-08-06T07:42:20;27.87;;;26.77;;
11431;SDS011;5772;50.940;6.782;2023-08-06T07:44:49;28.97;;;27.83;;
11431;SDS011;5772;50.940;6.782;2023-08-06T07:47:15;29.73;;;28.53;;
11431;SDS011;5772;50.940;6.782;2023-08-06T07:49:41;25.80;;;24.80;;
11431;SDS011;5772;50.940;6.782;2023-08-06T07:52:07;27.50;;;26.17;;
11431;SDS011;5772;50.940;6.782;2023-08-06T07:54:33;27.83;;;26.70;;
11431;SDS011;5772;50.940;6.782;2023-08-06T07:56:58;31.37;;;30.13;;
11431;SDS011;5772;50.940;6.782;2023-08-06T07:59:23;31.27;;;29.97;;
11431;SDS011;5772;50.940;6.782;2023-08-06T08:01:49;35.50;;;34.10;;
11431;SDS011;5772;50.940;6.782;2023-08-06T08:04:14;39.50;;;37.90;;
11431;SDS011;5772;50.940;6.782;2023-08-06T08:06:39;36.60;;;35.20;;
11431;SDS011;5772;50.940;6.782;2023-08-06T08:09:06;38.20;;;36.63;;
11431;SDS011;5772;50.940;6.782;2023-08-06T08:11:32;35.00;;;33.60;;
11431;SDS011;5772;50.940;6.782;2023-08-06T08:13:57;36.33;;;34.83;;
11431;SDS011;5772;50.940;6.782;2023-08-06T08:16:22;31.20;;;30.00;;
11431;SDS011;5772;50.940;6.782;2023-08-06T08:18:48;31.73;;;29.80;;
11431;SDS011;5772;50.940;6.782;2023-08-06T08:21:13;33.50;;;32.17;;
11431;SDS011;5772;50.940;6.782;2023-08-06T08:23:38;30.93;;;29.63;;
11431;SDS011;5772;50.940;6.782;2023-08-06T08:26:05;28.73;;;27.53;;
11431;SDS011;5772;50.940;6.782;2023-08-06T08:28:30;29.10;;;27.60;;
11431;SDS011;5772;50.940;6.782;2023-08-06T08:30:56;27.33;;;26.20;;
11431;SDS011;5772;50.940;6.782;2023-08-06T08:33:21;25.17;;;24.17;;
11431;SDS011;5772;50.940;6.782;2023-08-06T08:35:46;26.23;;;25.17;;
11431;SDS011;5772;50.940;6.782;2023-08-06T08:38:12;27.63;;;26.53;;
11431;SDS011;5772;50.940;6.782;2023-08-06T08:40:38;27.93;;;26.83;;
11431;SDS011;5772;50.940;6.782;2023-08-06T08:43:07;25.87;;;24.77;;
11431;SDS011;5772;50.940;6.782;2023-08-06T08:45:33;26.07;;;25.07;;
11431;SDS011;5772;50.940;6.782;2023-08-06T08:47:59;27.87;;;26.77;;
11431;SDS011;5772;50.940;6.782;2023-08-06T08:50:24;26.23;;;25.23;;
11431;SDS011;5772;50.940;6.782;2023-08-06T08:52:50;25.07;;;24.07;;
11431;SDS011;5772;50.940;6.782;2023-08-06T08:55:15;32.43;;;31.07;;
11431;SDS011;5772;50.940;6.782;2023-08-06T08:57:41;33.83;;;32.43;;
11431;SDS011;5772;50.940;6.782;2023-08-06T09:00:08;37.43;;;35.93;;
11431;SDS011;5772;50.940;6.782;2023-08-06T09:02:34;41.07;;;39.40;;
11431;SDS011;5772;50.940;6.782;2023-08-06T09:05:00;38.13;;;36.60;;
11431;SDS011;5772;50.940;6.782;2023-08-06T09:07:25;34.37;;;32.97;;
11431;SDS011;5772;50.940;6.782;2023-08-06T09:09:51;34.27;;;32.87;;
11431;SDS011;5772;50.940;6.782;2023-08-06T09:12:17;36.87;;;35.37;;
11431;SDS011;5772;50.940;6.782;2023-08-06T09:14:42;33.23;;;31.93;;
11431;SDS011;5772;50.940;6.782;2023-08-06T09:17:09;33.27;;;31.87;;
11431;SDS011;5772;50.940;6.782;2023-08-06T09:19:35;32.50;;;31.10;;
11431;SDS011;5772;50.940;6.782;2023-08-06T09:22:00;30.63;;;29.23;;
11431;SDS011;5772;50.940;6.782;2023-08-06T09:24:25;30.40;;;29.00;;
11431;SDS011;5772;50.940;6.782;2023-08-06T09:26:51;31.20;;;29.80;;
11431;SDS011;5772;50.940;6.782;2023-08-06T09:29:16;31.03;;;29.63;;
11431;SDS011;5772;50.940;6.782;2023-08-06T09:31:42;30.87;;;29.37;;
11431;SDS011;5772;50.940;6.782;2023-08-06T09:34:14;29.77;;;28.37;;
11431;SDS011;5772;50.940;6.782;2023-08-06T09:36:40;31.07;;;29.67;;
11431;SDS011;5772;50.940;6.782;2023-08-06T09:39:12;32.93;;;31.23;;
11431;SDS011;5772;50.940;6.782;2023-08-06T09:41:37;34.87;;;33.00;;
11431;SDS011;5772;50.940;6.782;2023-08-06T09:44:03;36.73;;;35.13;;
11431;SDS011;5772;50.940;6.782;2023-08-06T09:46:28;38.30;;;36.70;;
11431;SDS011;5772;50.940;6.782;2023-08-06T09:48:57;38.23;;;36.63;;
11431;SDS011;5772;50.940;6.782;2023-08-06T09:51:23;35.67;;;34.27;;
11431;SDS011;5772;50.940;6.782;2023-08-06T09:53:49;37.63;;;36.13;;
11431;SDS011;5772;50.940;6.782;2023-08-06T09:56:14;39.13;;;37.53;;
11431;SDS011;5772;50.940;6.782;2023-08-06T09:58:41;39.00;;;37.30;;
11431;SDS011;5772;50.940;6.782;2023-08-06T10:01:07;34.70;;;33.40;;
11431;SDS011;5772;50.940;6.782;2023-08-06T10:03:33;34.53;;;33.17;;
11431;SDS011;5772;50.940;6.782;2023-08-06T10:05:59;34.53;;;33.13;;
11431;SDS011;5772;50.940;6.782;2023-08-06T10:08:25;32.43;;;31.13;;
11431;SDS011;5772;50.940;6.782;2023-08-06T10:10:51;31.00;;;29.80;;
11431;SDS011;5772;50.940;6.782;2023-08-06T10:13:16;33.43;;;32.10;;
11431;SDS011;5772;50.940;6.782;2023-08-06T10:15:43;31.03;;;29.83;;
11431;SDS011;5772;50.940;6.782;2023-08-06T10:18:09;33.27;;;31.87;;
11431;SDS011;5772;50.940;6.782;2023-08-06T10:20:34;30.83;;;29.63;;
11431;SDS011;5772;50.940;6.782;2023-08-06T10:23:00;33.03;;;31.73;;
11431;SDS011;5772;50.940;6.782;2023-08-06T10:25:28;35.13;;;33.63;;
11431;SDS011;5772;50.940;6.782;2023-08-06T10:27:56;37.07;;;35.57;;
11431;SDS011;5772;50.940;6.782;2023-08-06T10:30:22;37.77;;;36.13;;
11431;SDS011;5772;50.940;6.782;2023-08-06T10:32:48;40.53;;;38.73;;
11431;SDS011;5772;50.940;6.782;2023-08-06T10:35:27;36.33;;;34.73;;
11431;SDS011;5772;50.940;6.782;2023-08-06T10:37:53;36.30;;;34.80;;
11431;SDS011;5772;50.940;6.782;2023-08-06T10:40:20;37.53;;;36.00;;
11431;SDS011;5772;50.940;6.782;2023-08-06T10:42:47;35.83;;;34.33;;
11431;SDS011;5772;50.940;6.782;2023-08-06T10:45:13;36.37;;;34.87;;
11431;SDS011;5772;50.940;6.782;2023-08-06T10:47:40;32.37;;;30.97;;
11431;SDS011;5772;50.940;6.782;2023-08-06T10:50:06;30.50;;;29.10;;
11431;SDS011;5772;50.940;6.782;2023-08-06T10:52:31;28.67;;;27.27;;
11431;SDS011;5772;50.940;6.782;2023-08-06T10:54:57;27.87;;;26.73;;
11431;SDS011;5772;50.940;6.782;2023-08-06T10:57:22;30.10;;;28.67;;
11431;SDS011;5772;50.940;6.782;2023-08-06T10:59:50;25.80;;;24.70;;
11431;SDS011;5772;50.940;6.782;2023-08-06T11:02:15;26.77;;;25.67;;
11431;SDS011;5772;50.940;6.782;2023-08-06T11:04:41;27.30;;;26.07;;
11431;SDS011;5772;50.940;6.782;2023-08-06T11:07:06;27.20;;;25.87;;
11431;SDS011;5772;50.940;6.782;2023-08-06T11:09:32;25.57;;;24.53;;
11431;SDS011;5772;50.940;6.782;2023-08-06T11:11:57;26.00;;;24.80;;
11431;SDS011;5772;50.940;6.782;2023-08-06T11:14:22;25.37;;;24.33;;
11431;SDS011;5772;50.940;6.782;2023-08-06T11:16:49;25.70;;;24.27;;
11431;SDS011;5772;50.940;6.782;2023-08-06T11:19:15;26.20;;;25.10;;
11431;SDS011;5772;50.940;6.782;2023-08-06T11:21:40;25.77;;;24.47;;
11431;SDS011;5772;50.940;6.782;2023-08-06T11:24:05;28.30;;;26.83;;
11431;SDS011;5772;50.940;6.782;2023-08-06T11:26:31;25.43;;;24.33;;
11431;SDS011;5772;50.940;6.782;2023-08-06T11:28:56;24.80;;;23.60;;
11431;SDS011;5772;50.940;6.782;2023-08-06T11:31:23;25.63;;;24.53;;
11431;SDS011;5772;50.940;6.782;2023-08-06T11:33:50;25.30;;;23.93;;
11431;SDS011;5772;50.940;6.782;2023-08-06T11:36:16;25.27;;;24.17;;
11431;SDS011;5772;50.940;6.782;2023-08-06T11:38:41;26.50;;;25.40;;
11431;SDS011;5772;50.940;6.782;2023-08-06T11:41:07;24.03;;;22.97;;
11431;SDS011;5772;50.940;6.782;2023-08-06T11:43:32;25.57;;;24.53;;
11431;SDS011;5772;50.940;6.782;2023-08-06T11:45:57;26.87;;;25.33;;
11431;SDS011;5772;50.940;6.782;2023-08-06T11:48:23;28.13;;;26.63;;
11431;SDS011;5772;50.940;6.782;2023-08-06T11:50:49;26.77;;;25.47;;
11431;SDS011;5772;50.940;6.782;2023-08-06T11:53:19;28.07;;;26.97;;
11431;SDS011;5772;50.940;6.782;2023-08-06T11:55:44;30.10;;;28.67;;
11431;SDS011;5772;50.940;6.782;2023-08-06T11:58:10;27.40;;;26.00;;
11431;SDS011;5772;50.940;6.782;2023-08-06T12:00:36;32.33;;;30.93;;
11431;SDS011;5772;50.940;6.782;2023-08-06T12:03:01;37.83;;;35.90;;
11431;SDS011;5772;50.940;6.782;2023-08-06T12:05:29;44.27;;;42.50;;
11431;SDS011;5772;50.940;6.782;2023-08-06T12:07:56;42.53;;;40.73;;
11431;SDS011;5772;50.940;6.782;2023-08-06T12:10:24;49.47;;;47.30;;
11431;SDS011;5772;50.940;6.782;2023-08-06T12:12:50;49.27;;;47.30;;
11431;SDS011;5772;50.940;6.782;2023-08-06T12:15:15;50.37;;;48.30;;
11431;SDS011;5772;50.940;6.782;2023-08-06T12:17:41;58.60;;;55.90;;
11431;SDS011;5772;50.940;6.782;2023-08-06T12:20:07;59.40;;;57.00;;
11431;SDS011;5772;50.940;6.782;2023-08-06T12:22:33;54.07;;;51.87;;
11431;SDS011;5772;50.940;6.782;2023-08-06T12:25:00;54.63;;;52.33;;
11431;SDS011;5772;50.940;6.782;2023-08-06T12:27:26;56.57;;;54.17;;
11431;SDS011;5772;50.940;6.782;2023-08-06T12:29:51;53.73;;;51.57;;
11431;SDS011;5772;50.940;6.782;2023-08-06T12:32:17;54.90;;;52.50;;
11431;SDS011;5772;50.940;6.782;2023-08-06T12:34:42;56.53;;;54.23;;
11431;SDS011;5772;50.940;6.782;2023-08-06T12:37:08;53.67;;;51.37;;
11431;SDS011;5772;50.940;6.782;2023-08-06T12:39:33;48.70;;;46.70;;
11431;SDS011;5772;50.940;6.782;2023-08-06T12:42:00;47.27;;;45.17;;
11431;SDS011;5772;50.940;6.782;2023-08-06T12:44:26;54.20;;;51.77;;
11431;SDS011;5772;50.940;6.782;2023-08-06T12:46:51;55.40;;;53.10;;
11431;SDS011;5772;50.940;6.782;2023-08-06T12:49:17;54.83;;;52.57;;
11431;SDS011;5772;50.940;6.782;2023-08-06T12:51:42;54.27;;;52.07;;
11431;SDS011;5772;50.940;6.782;2023-08-06T12:54:08;53.73;;;51.47;;
11431;SDS011;5772;50.940;6.782;2023-08-06T12:56:33;53.83;;;51.63;;
11431;SDS011;5772;50.940;6.782;2023-08-06T12:59:00;50.17;;;48.07;;
11431;SDS011;5772;50.940;6.782;2023-08-06T13:01:25;50.27;;;48.17;;
11431;SDS011;5772;50.940;6.782;2023-08-06T13:03:51;47.57;;;45.57;;
11431;SDS011;5772;50.940;6.782;2023-08-06T13:06:16;41.33;;;39.37;;
11431;SDS011;5772;50.940;6.782;2023-08-06T13:08:41;37.80;;;36.23;;
11431;SDS011;5772;50.940;6.782;2023-08-06T13:11:07;39.67;;;37.97;;
11431;SDS011;5772;50.940;6.782;2023-08-06T13:13:32;37.20;;;35.70;;
11431;SDS011;5772;50.940;6.782;2023-08-06T13:15:59;36.07;;;34.27;;
11431;SDS011;5772;50.940;6.782;2023-08-06T13:18:24;39.77;;;38.07;;
11431;SDS011;5772;50.940;6.782;2023-08-06T13:20:49;46.63;;;44.73;;
11431;SDS011;5772;50.940;6.782;2023-08-06T13:23:18;46.97;;;45.00;;
11431;SDS011;5772;50.940;6.782;2023-08-06T13:25:43;49.97;;;47.67;;
11431;SDS011;5772;50.940;6.782;2023-08-06T13:28:08;48.83;;;46.40;;
11431;SDS011;5772;50.940;6.782;2023-08-06T13:30:34;44.10;;;41.67;;
11431;SDS011;5772;50.940;6.782;2023-08-06T13:33:01;41.87;;;40.17;;
11431;SDS011;5772;50.940;6.782;2023-08-06T13:35:26;35.77;;;33.93;;
11431;SDS011;5772;50.940;6.782;2023-08-06T13:37:52;35.00;;;33.00;;
11431;SDS011;5772;50.940;6.782;2023-08-06T13:40:17;38.27;;;36.50;;
11431;SDS011;5772;50.940;6.782;2023-08-06T13:42:42;33.87;;;32.27;;
11431;SDS011;5772;50.940;6.782;2023-08-06T13:45:08;34.40;;;32.73;;
11431;SDS011;5772;50.940;6.782;2023-08-06T13:47:34;34.10;;;32.53;;
11431;SDS011;5772;50.940;6.782;2023-08-06T13:50:00;32.93;;;31.27;;
11431;SDS011;5772;50.940;6.782;2023-08-06T13:52:26;39.27;;;37.47;;
11431;SDS011;5772;50.940;6.782;2023-08-06T13:54:51;38.73;;;37.13;;
11431;SDS011;5772;50.940;6.782;2023-08-06T13:57:17;39.30;;;37.63;;
11431;SDS011;5772;50.940;6.782;2023-08-06T13:59:42;46.33;;;44.10;;
11431;SDS011;5772;50.940;6.782;2023-08-06T14:02:08;46.50;;;44.67;;
11431;SDS011;5772;50.940;6.782;2023-08-06T14:04:33;47.37;;;45.40;;
11431;SDS011;5772;50.940;6.782;2023-08-06T14:07:00;48.70;;;46.70;;
11431;SDS011;5772;50.940;6.782;2023-08-06T14:09:25;49.67;;;47.50;;
11431;SDS011;5772;50.940;6.782;2023-08-06T14:11:50;50.57;;;48.47;;
11431;SDS011;5772;50.940;6.782;2023-08-06T14:14:16;50.70;;;48.67;;
11431;SDS011;5772;50.940;6.782;2023-08-06T14:16:41;53.80;;;51.40;;
11431;SDS011;5772;50.940;6.782;2023-08-06T14:19:06;51.20;;;49.00;;
11431;SDS011;5772;50.940;6.782;2023-08-06T14:21:32;54.23;;;52.03;;
11431;SDS011;5772;50.940;6.782;2023-08-06T14:23:59;51.70;;;49.60;;